Susan Morrison — WDC7426 — position and weather

sailwx.info

Track history (hours):
 
Tides and Currents Weather Stations Pressure Air Temp Water Temp Dewpoint Dewpoint Depression Visibility Wind Speed Wind Dir Waves Ship Positions

Susan Morrison

Owner: Chet Morrison Contractors Inc., Houma, LA. More information available from US FCC via Universal Licensing System and Coast Guard Vessel Documentation Center.

Last reported at 2017-Sep-25 08:58 UTC. Time now 2017-Sep-25 09:44 UTC.
Position N 30°04' W 093°37'.

Length 15 m; draft 3.1 m.

Type: Towing. MMSI: 367071230.

Date/timePositionNaut miles runAvg speedWind from/ knotsBaromVisibWave heightAir tempDewpointWater temp
2017-Sep-25 08:58N 30°04' W 093°37'0 0.0
2017-Sep-25 06:19N 30°04' W 093°37'0 0.0
2017-Sep-25 05:52N 30°04' W 093°37'0 0.0
2017-Sep-25 05:22N 30°04' W 093°37'0 0.0
2017-Sep-25 04:58N 30°04' W 093°37'0 0.0
2017-Sep-25 04:28N 30°04' W 093°37'0 0.0
2017-Sep-25 03:58N 30°04' W 093°37'0 0.0
2017-Sep-25 03:28N 30°04' W 093°37'0 0.0
2017-Sep-25 02:58N 30°04' W 093°37'0 0.0
2017-Sep-25 02:28N 30°04' W 093°37'0 0.0
2017-Sep-25 01:58N 30°04' W 093°37'0 0.0
2017-Sep-25 01:28N 30°04' W 093°37'0 0.0
2017-Sep-25 00:52N 30°04' W 093°37'0 0.0
2017-Sep-25 00:28N 30°04' W 093°37'0 0.0
2017-Sep-24 23:58N 30°04' W 093°37'0 0.0
2017-Sep-24 22:46N 30°04' W 093°37'0 0.0
2017-Sep-24 22:28N 30°04' W 093°37'0 0.9
2017-Sep-24 22:00N 30°04' W 093°36'3 5.6
2017-Sep-24 21:30N 30°04' W 093°33'3 5.4
2017-Sep-24 21:00N 30°04' W 093°30'3 5.4
2017-Sep-24 20:30N 30°04' W 093°27'3 5.3
2017-Sep-24 20:00N 30°04' W 093°24'2 4.7
2017-Sep-24 19:30N 30°04' W 093°21'2 3.3
2017-Sep-24 19:00N 30°05' W 093°20'2 3.8
2017-Sep-24 18:31N 30°05' W 093°18'1 2.0
2017-Sep-24 17:59N 30°05' W 093°17'1 1.2
2017-Sep-24 17:30N 30°04' W 093°16'1 1.0
2017-Sep-24 16:55N 30°04' W 093°16'0 0.8
2017-Sep-24 16:30N 30°03' W 093°16'3 5.0
2017-Sep-24 16:00N 30°01' W 093°14'3 5.2
2017-Sep-24 15:29N 29°59' W 093°12'4 5.3
2017-Sep-24 14:47N 29°56' W 093°10'44 2.6
2017-Sep-23 21:46N 29°50' W 092°19'2 4.8
2017-Sep-23 21:15N 29°49' W 092°17'1 5.2
2017-Sep-23 21:00N 29°48' W 092°16'3 5.1
2017-Sep-23 20:30N 29°47' W 092°13'1 2.3
2017-Sep-23 20:00N 29°47' W 092°12'  
2017-Sep-20 17:44N 29°34' W 090°43'0 0.0
2017-Sep-20 17:29N 29°34' W 090°43'0 0.2
2017-Sep-20 17:00N 29°34' W 090°43'1 1.5
2017-Sep-20 16:30N 29°35' W 090°43'0 0.0
2017-Sep-20 16:00N 29°35' W 090°43'1 2.5
2017-Sep-20 15:31N 29°34' W 090°44'4 7.1
2017-Sep-20 15:00N 29°32' W 090°47'8 0.5
2017-Sep-19 22:57N 29°34' W 090°57'3 7.6
2017-Sep-19 22:31N 29°33' W 090°53'4 7.4
2017-Sep-19 22:00N 29°32' W 090°49'3 6.8
2017-Sep-19 21:30N 29°33' W 090°45'2 5.0
2017-Sep-19 21:01N 29°33' W 090°42'1 2.1
2017-Sep-19 20:30N 29°34' W 090°43'0 0.0
2017-Sep-19 20:00N 29°34' W 090°43'0 0.0
2017-Sep-19 19:30N 29°34' W 090°43'0 0.0
2017-Sep-19 19:00N 29°34' W 090°43'1 2.1
2017-Sep-19 18:30N 29°33' W 090°42'1 1.8
2017-Sep-19 18:00N 29°33' W 090°41'0 0.0
2017-Sep-19 17:30N 29°33' W 090°41'0 0.0
2017-Sep-19 17:00N 29°33' W 090°41'0 0.0
2017-Sep-19 16:30N 29°33' W 090°41'0 0.5
2017-Sep-19 16:00N 29°33' W 090°42'2 3.5
2017-Sep-19 15:30N 29°34' W 090°43'0 0.0
2017-Sep-19 15:00N 29°34' W 090°43'0 0.0
2017-Sep-19 14:30N 29°34' W 090°43'0 0.0
2017-Sep-19 14:00N 29°34' W 090°43'0 0.0
2017-Sep-19 13:30N 29°34' W 090°43'0 0.0
2017-Sep-19 13:00N 29°34' W 090°43'0 0.0
2017-Sep-19 12:30N 29°34' W 090°43'0 0.0
2017-Sep-19 12:00N 29°34' W 090°43'0 0.0
2017-Sep-19 11:30N 29°34' W 090°43'0 0.0
2017-Sep-19 11:00N 29°34' W 090°43'0 0.0
2017-Sep-19 10:30N 29°34' W 090°43'0 0.0
2017-Sep-19 10:00N 29°34' W 090°43'0 0.0
2017-Sep-19 09:30N 29°34' W 090°43'0 0.0
2017-Sep-19 09:00N 29°34' W 090°43'0 0.0
2017-Sep-19 08:30N 29°34' W 090°43'0 0.0
2017-Sep-19 08:00N 29°34' W 090°43'0 0.0
2017-Sep-19 07:30N 29°34' W 090°43'0 0.0
2017-Sep-19 07:00N 29°34' W 090°43'0 0.0
2017-Sep-19 06:30N 29°34' W 090°43'0 0.0
2017-Sep-19 06:00N 29°34' W 090°43'0 0.0
2017-Sep-19 05:30N 29°34' W 090°43'0 0.0
2017-Sep-19 05:00N 29°34' W 090°43'0 0.0
2017-Sep-19 04:30N 29°34' W 090°43'0 0.0
2017-Sep-19 04:00N 29°34' W 090°43'0 0.0
2017-Sep-19 03:30N 29°34' W 090°43'0 0.0
2017-Sep-19 03:00N 29°34' W 090°43'0 0.0
2017-Sep-19 02:30N 29°34' W 090°43'0 0.0
2017-Sep-19 02:00N 29°34' W 090°43'0 0.0
2017-Sep-19 01:30N 29°34' W 090°43'0 0.0
2017-Sep-19 01:00N 29°34' W 090°43'0 0.0
2017-Sep-19 00:30N 29°34' W 090°43'0 0.0
2017-Sep-19 00:00N 29°34' W 090°43'0 0.0
2017-Sep-18 23:30N 29°34' W 090°43'0 0.0
2017-Sep-18 23:00N 29°34' W 090°43'0 0.0
2017-Sep-18 22:30N 29°34' W 090°43'0 0.0
2017-Sep-18 22:00N 29°34' W 090°43'2 3.5
2017-Sep-18 21:30N 29°33' W 090°42'1 3.0
2017-Sep-18 21:00N 29°34' W 090°43'0 0.4
2017-Sep-18 20:29N 29°34' W 090°43'0 0.0
2017-Sep-18 19:59N 29°34' W 090°43'0 0.2
2017-Sep-18 19:29N 29°34' W 090°43'2 3.6
2017-Sep-18 19:00N 29°33' W 090°42'1 2.4
2017-Sep-18 18:30N 29°34' W 090°42'1 1.0
2017-Sep-18 17:58N 29°34' W 090°43'0 0.0
2017-Sep-18 17:28N 29°34' W 090°43'0 0.0
2017-Sep-18 16:58N 29°34' W 090°43'0 0.0
2017-Sep-18 15:58N 29°34' W 090°43'0 0.0
2017-Sep-18 15:28N 29°34' W 090°43'0 0.7
2017-Sep-18 15:00N 29°34' W 090°43'0 0.4
2017-Sep-18 14:30N 29°34' W 090°43'0 0.2
2017-Sep-18 13:58N 29°34' W 090°43'0 0.0
2017-Sep-18 13:28N 29°34' W 090°43'0 0.0
2017-Sep-18 12:58N 29°34' W 090°43'0 0.0
2017-Sep-18 12:28N 29°34' W 090°43'0 0.1
2017-Sep-18 12:00N 29°34' W 090°43'1 1.6
2017-Sep-18 11:31N 29°34' W 090°42'1 1.5
2017-Sep-18 11:00N 29°34' W 090°43'0 0.0
2017-Sep-18 10:30N 29°34' W 090°43'0 0.0
2017-Sep-18 10:00N 29°34' W 090°43'0 0.0
2017-Sep-18 09:30N 29°34' W 090°43'0 0.0
2017-Sep-18 09:00N 29°34' W 090°43'0 0.0
2017-Sep-18 08:30N 29°34' W 090°43'0 0.0
2017-Sep-18 08:00N 29°34' W 090°43'0 0.0
2017-Sep-18 07:30N 29°34' W 090°43'0 0.0
2017-Sep-18 07:00N 29°34' W 090°43'0 0.0
2017-Sep-18 06:30N 29°34' W 090°43'0 0.0
2017-Sep-18 06:00N 29°34' W 090°43'0 0.0
2017-Sep-18 05:30N 29°34' W 090°43'0 0.0
2017-Sep-18 05:00N 29°34' W 090°43'0 0.0
2017-Sep-18 04:30N 29°34' W 090°43'0 0.0
2017-Sep-18 04:00N 29°34' W 090°43'0 0.0
2017-Sep-18 03:30N 29°34' W 090°43'0 0.0
2017-Sep-18 03:00N 29°34' W 090°43'0 0.0
2017-Sep-18 02:30N 29°34' W 090°43'0 0.0
2017-Sep-18 02:00N 29°34' W 090°43'1 1.6
2017-Sep-18 01:30N 29°34' W 090°42'1 1.9
2017-Sep-18 01:00N 29°34' W 090°43'2 3.8
2017-Sep-18 00:30N 29°33' W 090°45'2 4.3
2017-Sep-18 00:00N 29°32' W 090°47'  
Track history (hours):
 
Tides and Currents Weather Stations Pressure Air Temp Water Temp Dewpoint Dewpoint Depression Visibility Wind Speed Wind Dir Waves Ship Positions

Susan Morrison

Owner: Chet Morrison Contractors Inc., Houma, LA. More information available from US FCC via Universal Licensing System and Coast Guard Vessel Documentation Center.

Last reported at 2017-Sep-25 08:58 UTC. Time now 2017-Sep-25 09:44 UTC.
Position N 30°04' W 093°37'.

Length 15 m; draft 3.1 m.

Type: Towing. MMSI: 367071230.

Date/timePositionNaut miles runAvg speedWind from/ knotsBaromVisibWave heightAir tempDewpointWater temp
2017-Sep-25 08:58N 30°04' W 093°37'0 0.0
2017-Sep-25 06:19N 30°04' W 093°37'0 0.0
2017-Sep-25 05:52N 30°04' W 093°37'0 0.0
2017-Sep-25 05:22N 30°04' W 093°37'0 0.0
2017-Sep-25 04:58N 30°04' W 093°37'0 0.0
2017-Sep-25 04:28N 30°04' W 093°37'0 0.0
2017-Sep-25 03:58N 30°04' W 093°37'0 0.0
2017-Sep-25 03:28N 30°04' W 093°37'0 0.0
2017-Sep-25 02:58N 30°04' W 093°37'0 0.0
2017-Sep-25 02:28N 30°04' W 093°37'0 0.0
2017-Sep-25 01:58N 30°04' W 093°37'0 0.0
2017-Sep-25 01:28N 30°04' W 093°37'0 0.0
2017-Sep-25 00:52N 30°04' W 093°37'0 0.0
2017-Sep-25 00:28N 30°04' W 093°37'0 0.0
2017-Sep-24 23:58N 30°04' W 093°37'0 0.0
2017-Sep-24 22:46N 30°04' W 093°37'0 0.0
2017-Sep-24 22:28N 30°04' W 093°37'0 0.9
2017-Sep-24 22:00N 30°04' W 093°36'3 5.6
2017-Sep-24 21:30N 30°04' W 093°33'3 5.4
2017-Sep-24 21:00N 30°04' W 093°30'3 5.4
2017-Sep-24 20:30N 30°04' W 093°27'3 5.3
2017-Sep-24 20:00N 30°04' W 093°24'2 4.7
2017-Sep-24 19:30N 30°04' W 093°21'2 3.3
2017-Sep-24 19:00N 30°05' W 093°20'2 3.8
2017-Sep-24 18:31N 30°05' W 093°18'1 2.0
2017-Sep-24 17:59N 30°05' W 093°17'1 1.2
2017-Sep-24 17:30N 30°04' W 093°16'1 1.0
2017-Sep-24 16:55N 30°04' W 093°16'0 0.8
2017-Sep-24 16:30N 30°03' W 093°16'3 5.0
2017-Sep-24 16:00N 30°01' W 093°14'3 5.2
2017-Sep-24 15:29N 29°59' W 093°12'4 5.3
2017-Sep-24 14:47N 29°56' W 093°10'44 2.6
2017-Sep-23 21:46N 29°50' W 092°19'2 4.8
2017-Sep-23 21:15N 29°49' W 092°17'1 5.2
2017-Sep-23 21:00N 29°48' W 092°16'3 5.1
2017-Sep-23 20:30N 29°47' W 092°13'1 2.3
2017-Sep-23 20:00N 29°47' W 092°12'  
2017-Sep-20 17:44N 29°34' W 090°43'0 0.0
2017-Sep-20 17:29N 29°34' W 090°43'0 0.2
2017-Sep-20 17:00N 29°34' W 090°43'1 1.5
2017-Sep-20 16:30N 29°35' W 090°43'0 0.0
2017-Sep-20 16:00N 29°35' W 090°43'1 2.5
2017-Sep-20 15:31N 29°34' W 090°44'4 7.1
2017-Sep-20 15:00N 29°32' W 090°47'8 0.5
2017-Sep-19 22:57N 29°34' W 090°57'3 7.6
2017-Sep-19 22:31N 29°33' W 090°53'4 7.4
2017-Sep-19 22:00N 29°32' W 090°49'3 6.8
2017-Sep-19 21:30N 29°33' W 090°45'2 5.0
2017-Sep-19 21:01N 29°33' W 090°42'1 2.1
2017-Sep-19 20:30N 29°34' W 090°43'0 0.0
2017-Sep-19 20:00N 29°34' W 090°43'0 0.0
2017-Sep-19 19:30N 29°34' W 090°43'0 0.0
2017-Sep-19 19:00N 29°34' W 090°43'1 2.1
2017-Sep-19 18:30N 29°33' W 090°42'1 1.8
2017-Sep-19 18:00N 29°33' W 090°41'0 0.0
2017-Sep-19 17:30N 29°33' W 090°41'0 0.0
2017-Sep-19 17:00N 29°33' W 090°41'0 0.0
2017-Sep-19 16:30N 29°33' W 090°41'0 0.5
2017-Sep-19 16:00N 29°33' W 090°42'2 3.5
2017-Sep-19 15:30N 29°34' W 090°43'0 0.0
2017-Sep-19 15:00N 29°34' W 090°43'0 0.0
2017-Sep-19 14:30N 29°34' W 090°43'0 0.0
2017-Sep-19 14:00N 29°34' W 090°43'0 0.0
2017-Sep-19 13:30N 29°34' W 090°43'0 0.0
2017-Sep-19 13:00N 29°34' W 090°43'0 0.0
2017-Sep-19 12:30N 29°34' W 090°43'0 0.0
2017-Sep-19 12:00N 29°34' W 090°43'0 0.0
2017-Sep-19 11:30N 29°34' W 090°43'0 0.0
2017-Sep-19 11:00N 29°34' W 090°43'0 0.0
2017-Sep-19 10:30N 29°34' W 090°43'0 0.0
2017-Sep-19 10:00N 29°34' W 090°43'0 0.0
2017-Sep-19 09:30N 29°34' W 090°43'0 0.0
2017-Sep-19 09:00N 29°34' W 090°43'0 0.0
2017-Sep-19 08:30N 29°34' W 090°43'0 0.0
2017-Sep-19 08:00N 29°34' W 090°43'0 0.0
2017-Sep-19 07:30N 29°34' W 090°43'0 0.0
2017-Sep-19 07:00N 29°34' W 090°43'0 0.0
2017-Sep-19 06:30N 29°34' W 090°43'0 0.0
2017-Sep-19 06:00N 29°34' W 090°43'0 0.0
2017-Sep-19 05:30N 29°34' W 090°43'0 0.0
2017-Sep-19 05:00N 29°34' W 090°43'0 0.0
2017-Sep-19 04:30N 29°34' W 090°43'0 0.0
2017-Sep-19 04:00N 29°34' W 090°43'0 0.0
2017-Sep-19 03:30N 29°34' W 090°43'0 0.0
2017-Sep-19 03:00N 29°34' W 090°43'0 0.0
2017-Sep-19 02:30N 29°34' W 090°43'0 0.0
2017-Sep-19 02:00N 29°34' W 090°43'0 0.0
2017-Sep-19 01:30N 29°34' W 090°43'0 0.0
2017-Sep-19 01:00N 29°34' W 090°43'0 0.0
2017-Sep-19 00:30N 29°34' W 090°43'0 0.0
2017-Sep-19 00:00N 29°34' W 090°43'0 0.0
2017-Sep-18 23:30N 29°34' W 090°43'0 0.0
2017-Sep-18 23:00N 29°34' W 090°43'0 0.0
2017-Sep-18 22:30N 29°34' W 090°43'0 0.0
2017-Sep-18 22:00N 29°34' W 090°43'2 3.5
2017-Sep-18 21:30N 29°33' W 090°42'1 3.0
2017-Sep-18 21:00N 29°34' W 090°43'0 0.4
2017-Sep-18 20:29N 29°34' W 090°43'0 0.0
2017-Sep-18 19:59N 29°34' W 090°43'0 0.2
2017-Sep-18 19:29N 29°34' W 090°43'2 3.6
2017-Sep-18 19:00N 29°33' W 090°42'1 2.4
2017-Sep-18 18:30N 29°34' W 090°42'1 1.0
2017-Sep-18 17:58N 29°34' W 090°43'0 0.0
2017-Sep-18 17:28N 29°34' W 090°43'0 0.0
2017-Sep-18 16:58N 29°34' W 090°43'0 0.0
2017-Sep-18 15:58N 29°34' W 090°43'0 0.0
2017-Sep-18 15:28N 29°34' W 090°43'0 0.7
2017-Sep-18 15:00N 29°34' W 090°43'0 0.4
2017-Sep-18 14:30N 29°34' W 090°43'0 0.2
2017-Sep-18 13:58N 29°34' W 090°43'0 0.0
2017-Sep-18 13:28N 29°34' W 090°43'0 0.0
2017-Sep-18 12:58N 29°34' W 090°43'0 0.0
2017-Sep-18 12:28N 29°34' W 090°43'0 0.1
2017-Sep-18 12:00N 29°34' W 090°43'1 1.6
2017-Sep-18 11:31N 29°34' W 090°42'1 1.5
2017-Sep-18 11:00N 29°34' W 090°43'0 0.0
2017-Sep-18 10:30N 29°34' W 090°43'0 0.0
2017-Sep-18 10:00N 29°34' W 090°43'0 0.0
2017-Sep-18 09:30N 29°34' W 090°43'0 0.0
2017-Sep-18 09:00N 29°34' W 090°43'0 0.0
2017-Sep-18 08:30N 29°34' W 090°43'0 0.0
2017-Sep-18 08:00N 29°34' W 090°43'0 0.0
2017-Sep-18 07:30N 29°34' W 090°43'0 0.0
2017-Sep-18 07:00N 29°34' W 090°43'0 0.0
2017-Sep-18 06:30N 29°34' W 090°43'0 0.0
2017-Sep-18 06:00N 29°34' W 090°43'0 0.0
2017-Sep-18 05:30N 29°34' W 090°43'0 0.0
2017-Sep-18 05:00N 29°34' W 090°43'0 0.0
2017-Sep-18 04:30N 29°34' W 090°43'0 0.0
2017-Sep-18 04:00N 29°34' W 090°43'0 0.0
2017-Sep-18 03:30N 29°34' W 090°43'0 0.0
2017-Sep-18 03:00N 29°34' W 090°43'0 0.0
2017-Sep-18 02:30N 29°34' W 090°43'0 0.0
2017-Sep-18 02:00N 29°34' W 090°43'1 1.6
2017-Sep-18 01:30N 29°34' W 090°42'1 1.9
2017-Sep-18 01:00N 29°34' W 090°43'2 3.8
2017-Sep-18 00:30N 29°33' W 090°45'2 4.3
2017-Sep-18 00:00N 29°32' W 090°47'  

Dump ship's entire track history